createdAt,value
2023-07-28T00:03:05.011Z,99472.60
2023-07-28T00:08:09.209Z,99462.40
2023-07-28T00:13:13.437Z,99454.20
2023-07-28T00:18:19.926Z,99454.80
2023-07-28T00:23:23.896Z,99451.60
2023-07-28T00:28:28.312Z,99441.40
2023-07-28T00:33:32.582Z,99441.60
2023-07-28T00:38:36.768Z,99434.80
2023-07-28T00:43:41.053Z,99420.20
2023-07-28T00:48:46.469Z,99414.20
2023-07-28T00:53:50.607Z,99408.80
2023-07-28T00:58:54.832Z,99399.40
2023-07-28T01:04:00.063Z,99399.20
2023-07-28T01:09:11.413Z,99395.20
2023-07-28T01:14:15.541Z,99397.40
2023-07-28T01:19:23.998Z,99392.00
2023-07-28T01:24:50.872Z,99385.20
2023-07-28T01:29:55.194Z,99380.20
2023-07-28T01:34:59.262Z,99372.40
2023-07-28T01:40:04.120Z,99373.80
2023-07-28T01:45:09.401Z,99366.80
2023-07-28T01:50:13.557Z,99356.80
2023-07-28T01:55:17.614Z,99353.00
2023-07-28T02:00:21.822Z,99350.40
2023-07-28T02:05:26.189Z,99350.60
2023-07-28T02:10:32.638Z,99349.00
2023-07-28T02:15:38.434Z,99338.60
2023-07-28T02:20:44.824Z,99328.80
2023-07-28T02:25:49.157Z,99328.60
2023-07-28T02:30:53.230Z,99325.80
2023-07-28T02:35:58.539Z,99322.60
2023-07-28T02:41:04.689Z,99325.00
2023-07-28T02:46:08.625Z,99317.20
2023-07-28T02:51:12.588Z,99319.00
2023-07-28T02:56:16.708Z,99315.00
2023-07-28T03:01:22.550Z,99319.80
2023-07-28T03:06:26.621Z,99306.20
2023-07-28T03:11:30.730Z,99300.80
2023-07-28T03:16:35.237Z,99309.80
2023-07-28T03:21:40.333Z,99304.40
2023-07-28T03:26:44.592Z,99300.40
2023-07-28T03:31:48.754Z,99294.80
2023-07-28T03:36:53.090Z,99294.20
2023-07-28T03:41:57.515Z,99297.00
2023-07-28T03:47:01.890Z,99289.00
2023-07-28T03:52:06.792Z,99284.80
2023-07-28T03:57:11.789Z,99274.20
2023-07-28T04:02:15.770Z,99271.40
2023-07-28T04:07:19.821Z,99264.60
2023-07-28T04:12:24.172Z,99255.20
2023-07-28T04:17:29.527Z,99252.60
2023-07-28T04:22:33.436Z,99252.40
2023-07-28T04:27:37.486Z,99265.40
2023-07-28T04:32:41.785Z,99260.00
2023-07-28T04:37:46.319Z,99263.60
2023-07-28T04:42:54.374Z,99261.60
2023-07-28T04:47:58.575Z,99260.00
2023-07-28T04:53:03.277Z,99252.60
2023-07-28T04:58:08.419Z,99257.00
2023-07-28T05:03:13.765Z,99252.80
2023-07-28T05:08:17.781Z,99250.80
2023-07-28T05:13:21.948Z,99244.20
2023-07-28T05:18:25.888Z,99251.00
2023-07-28T05:23:29.942Z,99255.40
2023-07-28T05:28:37.328Z,99245.20
2023-07-28T05:33:41.453Z,99238.40
2023-07-28T05:38:45.600Z,99237.80
2023-07-28T05:43:51.675Z,99234.40
2023-07-28T05:48:57.686Z,99230.20
2023-07-28T05:54:02.079Z,99224.00
2023-07-28T05:59:05.943Z,99219.60
2023-07-28T06:04:10.056Z,99221.60
2023-07-28T06:09:14.364Z,99216.40
2023-07-28T06:14:18.509Z,99215.60
2023-07-28T06:19:25.537Z,99219.80
2023-07-28T06:24:29.657Z,99224.00
2023-07-28T06:29:33.789Z,99231.80
2023-07-28T06:34:38.532Z,99226.20
2023-07-28T06:39:42.412Z,99224.40
2023-07-28T06:44:46.360Z,99233.00
2023-07-28T06:49:50.417Z,99228.60
2023-07-28T06:54:56.242Z,99234.20
2023-07-28T07:00:01.751Z,99233.20
2023-07-28T07:05:06.600Z,99232.60
2023-07-28T07:10:11.149Z,99232.20
2023-07-28T07:15:15.300Z,99228.00
2023-07-28T07:20:19.301Z,99232.40
2023-07-28T07:25:23.877Z,99224.60
2023-07-28T07:30:28.098Z,99214.00
2023-07-28T07:35:32.329Z,99215.60
2023-07-28T07:40:38.685Z,99220.40
2023-07-28T07:45:42.879Z,99226.20
2023-07-28T07:50:47.133Z,99226.60
2023-07-28T07:55:51.550Z,99220.00
2023-07-28T08:00:56.777Z,99223.00
2023-07-28T08:06:00.949Z,99222.20
2023-07-28T08:11:05.893Z,99225.40
2023-07-28T08:16:10.621Z,99220.80
2023-07-28T08:21:14.762Z,99223.40
2023-07-28T08:26:18.783Z,99232.00
2023-07-28T08:31:22.846Z,99222.80
2023-07-28T08:36:26.968Z,99216.20
2023-07-28T08:41:31.090Z,99217.40
2023-07-28T08:46:37.021Z,99224.40
2023-07-28T08:51:44.117Z,99223.80
2023-07-28T08:56:48.311Z,99225.20
2023-07-28T09:01:54.204Z,99231.40
2023-07-28T09:07:00.468Z,99224.60
2023-07-28T09:12:05.582Z,99227.40
2023-07-28T09:17:15.081Z,99221.80
2023-07-28T09:22:20.783Z,99220.00
2023-07-28T09:27:30.582Z,99218.00
2023-07-28T09:32:37.040Z,99216.00
2023-07-28T09:37:44.942Z,99215.60
2023-07-28T09:42:54.434Z,99212.40
2023-07-28T09:48:06.564Z,99205.80
2023-07-28T09:53:14.778Z,99201.20
2023-07-28T09:58:23.476Z,99203.00
2023-07-28T10:03:28.291Z,99203.40
2023-07-28T10:08:34.416Z,99198.20
2023-07-28T10:13:44.394Z,99204.40
2023-07-28T10:18:58.334Z,99193.20
2023-07-28T10:24:02.600Z,99190.40
2023-07-28T10:29:16.662Z,99180.80
2023-07-28T10:34:23.339Z,99176.40
2023-07-28T10:39:27.903Z,99175.20
2023-07-28T10:44:34.306Z,99182.80
2023-07-28T10:49:38.516Z,99186.20
2023-07-28T10:54:44.170Z,99185.80
2023-07-28T10:59:48.626Z,99185.00
2023-07-28T11:04:52.796Z,99182.80
2023-07-28T11:09:56.906Z,99186.00
2023-07-28T11:15:01.446Z,99178.00
2023-07-28T11:20:19.892Z,99180.40
2023-07-28T11:25:27.106Z,99176.20
2023-07-28T11:30:32.815Z,99174.00
2023-07-28T11:35:37.531Z,99169.60
2023-07-28T11:40:43.238Z,99174.20
2023-07-28T11:45:47.634Z,99178.00
2023-07-28T11:50:55.140Z,99181.40
2023-07-28T11:55:59.495Z,99180.80
2023-07-28T12:01:10.830Z,99173.60
2023-07-28T12:21:56.617Z,99180.20
2023-07-28T12:27:00.748Z,99178.60
2023-07-28T12:32:05.229Z,99181.40
2023-07-28T12:37:11.830Z,99180.00
2023-07-28T12:42:21.599Z,99189.20
2023-07-28T12:47:43.277Z,99190.00
2023-07-28T12:57:56.173Z,99190.80
2023-07-28T13:03:00.739Z,99196.40
2023-07-28T13:13:14.460Z,99180.60
2023-07-28T13:18:19.159Z,99181.60
2023-07-28T13:23:23.416Z,99178.00
2023-07-28T13:28:27.540Z,99178.60
2023-07-28T13:33:32.931Z,99188.40
2023-07-28T13:38:37.643Z,99182.00
2023-07-28T13:43:42.280Z,99179.20
2023-07-28T13:48:53.734Z,99195.20
2023-07-28T13:59:06.870Z,99195.80
2023-07-28T14:09:58.524Z,99188.20
2023-07-28T14:15:02.918Z,99195.60
2023-07-28T14:20:08.430Z,99195.80
2023-07-28T14:25:12.429Z,99196.60
2023-07-28T14:30:16.511Z,99205.40
2023-07-28T14:35:21.060Z,99201.40
2023-07-28T14:40:25.236Z,99200.20
2023-07-28T14:45:29.646Z,99204.00
2023-07-28T14:50:34.415Z,99208.00
2023-07-28T14:55:38.534Z,99210.00
2023-07-28T15:00:45.291Z,99211.20
2023-07-28T15:05:54.424Z,99214.00
2023-07-28T15:11:04.281Z,99214.60
2023-07-28T15:16:18.760Z,99220.80
2023-07-28T15:21:29.511Z,99221.00
2023-07-28T15:26:40.280Z,99217.80
2023-07-28T15:31:51.512Z,99229.00
2023-07-28T15:37:09.892Z,99232.00
2023-07-28T15:42:23.820Z,99238.20
2023-07-28T15:47:35.474Z,99233.40
2023-07-28T15:52:48.487Z,99232.40
2023-07-28T15:57:59.571Z,99241.40
2023-07-28T16:03:07.810Z,99250.40
2023-07-28T16:08:23.137Z,99254.20
2023-07-28T16:13:43.858Z,99259.40
2023-07-28T16:19:12.021Z,99260.40
2023-07-28T16:24:56.082Z,99247.60
2023-07-28T16:30:23.803Z,99269.60
2023-07-28T16:41:27.105Z,99281.80
2023-07-28T16:46:47.262Z,99281.60
2023-07-28T16:52:06.176Z,99289.40
2023-07-28T16:57:22.454Z,99293.00
2023-07-28T17:02:52.513Z,99282.80
2023-07-28T17:08:09.278Z,99296.00
2023-07-28T17:13:18.753Z,99295.00
2023-07-28T17:18:48.257Z,99302.40
2023-07-28T17:29:31.419Z,99311.80
2023-07-28T17:34:42.014Z,99313.20
2023-07-28T17:39:50.744Z,99319.00
2023-07-28T17:44:54.768Z,99328.20
2023-07-28T17:49:59.331Z,99324.80
2023-07-28T17:55:04.075Z,99331.00
2023-07-28T18:00:09.757Z,99338.60
2023-07-28T18:05:13.785Z,99343.00
2023-07-28T18:10:18.616Z,99348.60
2023-07-28T18:21:10.225Z,99365.40
2023-07-28T18:26:14.865Z,99367.00
2023-07-28T18:31:19.344Z,99364.20
2023-07-28T18:36:23.638Z,99369.60
2023-07-28T18:41:27.749Z,99377.00
2023-07-28T18:46:32.247Z,99376.60
2023-07-28T18:51:37.236Z,99380.20
2023-07-28T18:56:43.581Z,99388.60
2023-07-28T19:01:47.498Z,99391.60
2023-07-28T19:06:52.427Z,99401.60
2023-07-28T19:11:56.461Z,99403.40
2023-07-28T19:17:00.474Z,99405.40
2023-07-28T19:22:08.274Z,99408.80
2023-07-28T19:27:17.608Z,99415.60
2023-07-28T19:32:22.749Z,99419.80
2023-07-28T19:37:42.996Z,99421.40
2023-07-28T19:42:49.219Z,99430.40
2023-07-28T19:47:53.763Z,99432.40
2023-07-28T19:52:59.728Z,99433.00
2023-07-28T19:58:04.801Z,99443.80
2023-07-28T20:03:09.106Z,99453.80
2023-07-28T20:08:13.581Z,99457.40
2023-07-28T20:13:17.239Z,99465.60
2023-07-28T20:18:22.941Z,99470.00
2023-07-28T20:23:30.192Z,99473.00
2023-07-28T20:28:52.670Z,99474.40
2023-07-28T20:33:58.245Z,99481.00
2023-07-28T20:39:03.034Z,99483.20
2023-07-28T20:44:07.610Z,99486.40
2023-07-28T20:49:12.931Z,99485.20
2023-07-28T20:54:26.518Z,99495.40
2023-07-28T20:59:45.408Z,99502.00
2023-07-28T21:05:03.507Z,99504.80
2023-07-28T21:10:34.095Z,99517.80
2023-07-28T21:15:43.493Z,99527.00
2023-07-28T21:20:48.288Z,99529.60
2023-07-28T21:25:52.564Z,99532.40
2023-07-28T21:30:56.609Z,99530.60
2023-07-28T21:36:00.725Z,99529.60
2023-07-28T21:41:06.990Z,99525.40
2023-07-28T21:46:10.880Z,99527.20
2023-07-28T21:51:14.960Z,99527.20
2023-07-28T21:56:31.536Z,99533.40
2023-07-28T22:01:35.659Z,99538.00
2023-07-28T22:06:42.477Z,99541.00
2023-07-28T22:11:47.047Z,99547.20
2023-07-28T22:16:58.366Z,99554.40
2023-07-28T22:22:06.874Z,99554.00
2023-07-28T22:27:12.480Z,99555.60
2023-07-28T22:32:16.431Z,99548.80
2023-07-28T22:37:21.202Z,99547.80
2023-07-28T22:42:25.927Z,99552.40
2023-07-28T22:47:31.686Z,99560.80
2023-07-28T22:52:36.510Z,99563.40
2023-07-28T22:57:40.746Z,99570.60
2023-07-28T23:02:44.813Z,99572.40
2023-07-28T23:07:48.913Z,99577.00
2023-07-28T23:12:54.383Z,99579.20
2023-07-28T23:17:59.963Z,99576.40
2023-07-28T23:23:05.507Z,99579.80
2023-07-28T23:28:09.344Z,99581.60
2023-07-28T23:33:13.692Z,99586.80
2023-07-28T23:38:17.930Z,99584.80
2023-07-28T23:43:21.942Z,99588.80
2023-07-28T23:48:29.207Z,99596.40
2023-07-28T23:53:33.187Z,99596.80
2023-07-28T23:58:37.222Z,99604.00
